Renick, Missouri
Current Conditions -  °F | °C
As of 3:15 PM on Sunday 23 Nov 2014 (Local Time) from KVER Reporting Station
Overcast Overcast  
Wind Chill: 55°   Ceiling: 600
Heat Index: 55°   Visibility: 10mi
Dew Point: 55°   Wind: 7mph
Humidity: 100%   Direction: 170°S
Pressure: 29.33"   Gusts: NA
Location:  39.34°N, 92.41°W
Report Text: KVER 232115Z AUTO 17006KT 10SM OVC006 13/13 A2933 RMK AO2 T01300130
Loading
Personal Weather Stations






























Interactive Weather Map New forecast layout! Learn more

10-Day Weather Forecast

Advertisements
Track Severe Weather on mobile